createdAt,value
2022-10-31T00:02:10.057Z,12.50
2022-10-31T00:07:11.844Z,12.60
2022-10-31T00:12:13.577Z,12.50
2022-10-31T00:17:15.323Z,12.50
2022-10-31T00:22:17.538Z,12.50
2022-10-31T00:27:19.264Z,12.50
2022-10-31T00:32:21.403Z,12.50
2022-10-31T00:37:23.289Z,12.50
2022-10-31T00:42:25.037Z,12.40
2022-10-31T00:47:26.776Z,12.40
2022-10-31T00:52:28.681Z,12.30
2022-10-31T00:57:30.468Z,12.30
2022-10-31T01:02:32.334Z,12.30
2022-10-31T01:07:39.080Z,12.30
2022-10-31T01:12:47.215Z,12.30
2022-10-31T01:17:50.082Z,12.40
2022-10-31T01:22:51.885Z,12.40
2022-10-31T01:27:53.683Z,12.40
2022-10-31T01:32:55.416Z,12.50
2022-10-31T01:37:57.155Z,12.50
2022-10-31T01:42:59.168Z,12.40
2022-10-31T01:48:01.349Z,12.40
2022-10-31T01:53:06.177Z,12.30
2022-10-31T02:03:22.348Z,12.20
2022-10-31T02:08:33.417Z,12.20
2022-10-31T02:13:35.413Z,12.20
2022-10-31T02:18:40.920Z,12.20
2022-10-31T02:23:54.704Z,12.20
2022-10-31T02:29:11.609Z,12.20
2022-10-31T02:34:37.288Z,12.20
2022-10-31T02:39:53.680Z,12.10
2022-10-31T02:45:11.571Z,12.00
2022-10-31T02:50:24.488Z,11.90
2022-10-31T02:55:26.252Z,11.90
2022-10-31T03:00:47.011Z,11.80
2022-10-31T03:06:06.579Z,11.80
2022-10-31T03:11:10.596Z,11.80
2022-10-31T03:16:19.371Z,11.80
2022-10-31T03:21:40.992Z,11.90
2022-10-31T03:26:48.506Z,11.80
2022-10-31T03:31:53.143Z,11.80
2022-10-31T03:37:02.864Z,11.90
2022-10-31T03:42:14.995Z,12.00
2022-10-31T03:47:17.137Z,12.10
2022-10-31T03:52:27.039Z,12.30
2022-10-31T03:57:40.449Z,12.40
2022-10-31T04:02:57.833Z,12.50
2022-10-31T04:08:03.633Z,12.60
2022-10-31T04:13:14.578Z,12.60
2022-10-31T04:18:23.992Z,12.70
2022-10-31T04:23:27.279Z,12.70
2022-10-31T04:28:29.677Z,12.70
2022-10-31T04:33:32.774Z,12.70
2022-10-31T04:38:34.535Z,12.80
2022-10-31T04:43:39.778Z,12.80
2022-10-31T04:48:41.554Z,12.80
2022-10-31T04:53:43.400Z,12.80
2022-10-31T04:59:11.161Z,12.80
2022-10-31T05:04:26.469Z,12.80
2022-10-31T05:09:28.373Z,12.90
2022-10-31T05:14:30.264Z,12.90
2022-10-31T05:19:51.968Z,13.00
2022-10-31T05:25:27.268Z,12.90
2022-10-31T05:30:31.483Z,12.90
2022-10-31T05:35:34.164Z,12.90
2022-10-31T05:40:50.816Z,12.90
2022-10-31T05:45:56.889Z,12.90
2022-10-31T05:51:18.615Z,12.80
2022-10-31T05:56:20.501Z,12.80
2022-10-31T06:01:22.599Z,12.80
2022-10-31T06:06:24.655Z,12.80
2022-10-31T06:11:26.414Z,12.80
2022-10-31T06:16:48.544Z,12.80
2022-10-31T06:22:28.935Z,12.90
2022-10-31T06:27:30.866Z,12.90
2022-10-31T06:32:37.624Z,12.90
2022-10-31T06:37:39.717Z,12.90
2022-10-31T06:43:03.789Z,12.90
2022-10-31T06:48:22.973Z,13.00
2022-10-31T06:53:54.193Z,13.00
2022-10-31T06:58:58.856Z,13.10
2022-10-31T07:04:23.661Z,13.10
2022-10-31T07:09:25.733Z,13.20
2022-10-31T07:14:28.098Z,13.20
2022-10-31T07:19:30.025Z,13.30
2022-10-31T07:24:32.492Z,13.60
2022-10-31T07:30:04.243Z,13.70
2022-10-31T07:35:13.715Z,13.80
2022-10-31T07:40:22.976Z,14.00
2022-10-31T07:45:24.822Z,14.10
2022-10-31T07:50:47.265Z,14.20
2022-10-31T07:56:07.547Z,14.30
2022-10-31T08:01:09.706Z,14.50
2022-10-31T08:06:21.068Z,14.40
2022-10-31T08:11:29.107Z,14.40
2022-10-31T08:16:31.042Z,14.20
2022-10-31T08:21:36.456Z,14.20
2022-10-31T08:26:39.311Z,14.20
2022-10-31T08:31:44.597Z,14.20
2022-10-31T08:37:05.356Z,14.20
2022-10-31T08:42:15.813Z,14.20
2022-10-31T08:47:17.983Z,14.20
2022-10-31T08:52:21.550Z,14.20
2022-10-31T08:57:24.100Z,14.20
2022-10-31T09:02:26.519Z,14.20
2022-10-31T09:07:33.296Z,14.20
2022-10-31T09:12:35.125Z,14.30
2022-10-31T09:17:55.541Z,14.40
2022-10-31T09:23:16.257Z,14.60
2022-10-31T09:28:20.582Z,14.60
2022-10-31T09:33:22.737Z,14.70
2022-10-31T09:38:39.409Z,14.80
2022-10-31T09:43:58.580Z,14.90
2022-10-31T09:49:18.482Z,15.00
2022-10-31T09:54:36.517Z,15.00
2022-10-31T09:59:41.541Z,15.10
2022-10-31T10:05:12.282Z,15.10
2022-10-31T10:10:26.615Z,15.10
2022-10-31T10:16:04.186Z,15.20
2022-10-31T10:21:16.410Z,15.40
2022-10-31T10:26:21.033Z,15.60
2022-10-31T10:31:30.027Z,15.80
2022-10-31T10:36:43.275Z,15.90
2022-10-31T10:42:08.877Z,15.90
2022-10-31T10:47:29.337Z,15.90
2022-10-31T10:52:43.409Z,16.00
2022-10-31T10:57:55.060Z,16.20
2022-10-31T11:02:56.818Z,16.40
2022-10-31T11:07:58.835Z,16.60
2022-10-31T11:13:16.827Z,16.90
2022-10-31T11:18:28.683Z,16.90
2022-10-31T11:23:38.420Z,17.10
2022-10-31T11:28:40.350Z,17.20
2022-10-31T11:33:45.193Z,17.20
2022-10-31T11:38:47.161Z,17.40
2022-10-31T11:43:55.314Z,17.40
2022-10-31T11:48:57.703Z,17.50
2022-10-31T11:54:03.541Z,17.60
2022-10-31T11:59:15.819Z,17.70
2022-10-31T12:04:18.322Z,17.80
2022-10-31T12:09:29.179Z,17.90
2022-10-31T12:15:10.608Z,18.00
2022-10-31T12:20:21.191Z,18.10
2022-10-31T12:25:56.858Z,18.00
2022-10-31T12:31:23.250Z,18.00
2022-10-31T12:36:39.115Z,18.10
2022-10-31T12:42:00.030Z,18.10
2022-10-31T12:47:21.438Z,18.40
2022-10-31T12:52:32.384Z,18.60
2022-10-31T12:57:41.099Z,18.70
2022-10-31T13:03:24.567Z,18.80
2022-10-31T13:08:53.647Z,18.90
2022-10-31T13:14:26.438Z,19.10
2022-10-31T13:19:42.188Z,19.20
2022-10-31T13:25:03.189Z,19.30
2022-10-31T13:30:14.863Z,19.30
2022-10-31T13:35:53.746Z,19.30
2022-10-31T13:41:02.347Z,19.40
2022-10-31T13:46:27.467Z,19.40
2022-10-31T13:51:36.088Z,19.40
2022-10-31T13:56:38.063Z,19.20
2022-10-31T14:01:57.517Z,19.10
2022-10-31T14:07:07.460Z,19.00
2022-10-31T14:12:36.236Z,18.90
2022-10-31T14:17:48.652Z,18.90
2022-10-31T14:22:50.635Z,18.80
2022-10-31T14:27:53.519Z,18.70
2022-10-31T14:33:01.535Z,18.70
2022-10-31T14:38:28.065Z,18.70
2022-10-31T14:43:40.096Z,18.50
2022-10-31T14:49:00.648Z,18.30
2022-10-31T14:54:03.392Z,18.30
2022-10-31T14:59:13.597Z,17.90
2022-10-31T15:04:24.565Z,17.40
2022-10-31T15:09:32.445Z,17.30
2022-10-31T15:14:34.228Z,17.20
2022-10-31T15:19:37.597Z,17.00
2022-10-31T15:24:39.894Z,16.90
2022-10-31T15:29:57.318Z,16.70
2022-10-31T15:34:59.199Z,16.60
2022-10-31T15:40:15.507Z,16.40
2022-10-31T15:45:20.832Z,16.30
2022-10-31T15:50:30.851Z,16.10
2022-10-31T15:55:46.307Z,15.90
2022-10-31T16:01:05.248Z,15.80
2022-10-31T16:06:07.360Z,15.80
2022-10-31T16:11:13.334Z,15.70
2022-10-31T16:21:40.073Z,15.70
2022-10-31T16:26:42.055Z,15.50
2022-10-31T16:31:43.781Z,15.30
2022-10-31T16:36:46.081Z,15.20
2022-10-31T16:41:51.317Z,15.10
2022-10-31T16:47:15.717Z,15.00
2022-10-31T16:52:18.577Z,15.00
2022-10-31T16:57:27.249Z,14.90
2022-10-31T17:02:29.859Z,14.80
2022-10-31T17:07:31.660Z,14.70
2022-10-31T17:12:33.499Z,14.50
2022-10-31T17:17:35.318Z,14.50
2022-10-31T17:22:37.080Z,14.40
2022-10-31T17:27:42.199Z,14.30
2022-10-31T17:32:46.656Z,14.20
2022-10-31T17:37:49.464Z,14.00
2022-10-31T17:42:53.151Z,13.90
2022-10-31T17:47:55.118Z,13.80
2022-10-31T17:52:58.719Z,13.80
2022-10-31T17:58:00.664Z,13.70
2022-10-31T18:03:04.178Z,13.60
2022-10-31T18:08:06.544Z,13.60
2022-10-31T18:13:08.267Z,13.60
2022-10-31T18:18:10.137Z,13.50
2022-10-31T18:23:12.798Z,13.50
2022-10-31T18:28:15.239Z,13.40
2022-10-31T18:33:17.302Z,13.40
2022-10-31T18:38:19.115Z,13.40
2022-10-31T18:43:21.011Z,13.40
2022-10-31T18:48:22.722Z,13.40
2022-10-31T18:53:25.268Z,13.30
2022-10-31T18:58:28.540Z,13.30
2022-10-31T19:03:30.325Z,13.40
2022-10-31T19:08:32.066Z,13.30
2022-10-31T19:13:35.114Z,13.30
2022-10-31T19:18:37.857Z,13.40
2022-10-31T19:23:39.842Z,13.30
2022-10-31T19:28:42.342Z,13.30
2022-10-31T19:33:44.210Z,13.30
2022-10-31T19:38:48.876Z,13.30
2022-10-31T19:43:51.165Z,13.30
2022-10-31T19:48:53.279Z,13.30
2022-10-31T19:53:55.120Z,13.30
2022-10-31T19:58:59.747Z,13.30
2022-10-31T20:04:01.817Z,13.30
2022-10-31T20:09:07.907Z,13.20
2022-10-31T20:14:12.748Z,13.30
2022-10-31T20:19:14.865Z,13.30
2022-10-31T20:24:16.920Z,13.30
2022-10-31T20:29:19.715Z,13.20
2022-10-31T20:34:21.496Z,13.30
2022-10-31T20:39:23.309Z,13.30
2022-10-31T20:44:25.014Z,13.20
2022-10-31T20:49:26.740Z,13.20
2022-10-31T20:54:28.497Z,13.20
2022-10-31T20:59:30.536Z,13.20
2022-10-31T21:04:32.375Z,13.20
2022-10-31T21:09:34.200Z,13.10
2022-10-31T21:14:37.428Z,13.10
2022-10-31T21:19:39.205Z,13.10
2022-10-31T21:24:41.439Z,13.10
2022-10-31T21:29:43.594Z,13.10
2022-10-31T21:34:45.327Z,13.10
2022-10-31T21:39:50.795Z,13.20
2022-10-31T21:44:53.108Z,13.10
2022-10-31T21:49:55.034Z,13.10
2022-10-31T21:54:56.891Z,13.10
2022-10-31T21:59:58.976Z,13.00
2022-10-31T22:05:01.327Z,13.00
2022-10-31T22:10:03.325Z,13.10
2022-10-31T22:15:05.365Z,13.00
2022-10-31T22:20:08.397Z,13.00
2022-10-31T22:25:10.161Z,12.90
2022-10-31T22:30:12.182Z,12.90
2022-10-31T22:35:13.912Z,12.90
2022-10-31T22:40:15.741Z,13.00
2022-10-31T22:45:17.699Z,12.90
2022-10-31T22:50:19.423Z,12.90
2022-10-31T22:55:21.157Z,12.90
2022-10-31T23:00:23.022Z,13.00
2022-10-31T23:05:24.926Z,13.00
2022-10-31T23:10:33.101Z,13.00
2022-10-31T23:15:38.142Z,13.00
2022-10-31T23:26:03.220Z,13.00
2022-10-31T23:31:05.055Z,13.10
2022-10-31T23:36:07.407Z,13.10
2022-10-31T23:41:09.271Z,13.10
2022-10-31T23:46:11.001Z,13.10
2022-10-31T23:51:12.711Z,13.10
2022-10-31T23:56:14.786Z,13.20
